sensor_id;sensor_type;location;lat;lon;timestamp;temperature;humidity
59855;DHT22;45732;52.850;6.896;2022-07-05T00:00:10;14.60;99.90
59855;DHT22;45732;52.850;6.896;2022-07-05T00:02:36;14.70;99.90
59855;DHT22;45732;52.850;6.896;2022-07-05T00:05:02;14.80;99.90
59855;DHT22;45732;52.850;6.896;2022-07-05T00:07:28;14.80;99.90
59855;DHT22;45732;52.850;6.896;2022-07-05T00:09:55;14.70;99.90
59855;DHT22;45732;52.850;6.896;2022-07-05T00:12:24;14.80;99.90
59855;DHT22;45732;52.850;6.896;2022-07-05T00:14:50;14.80;99.90
59855;DHT22;45732;52.850;6.896;2022-07-05T00:17:16;14.80;99.90
59855;DHT22;45732;52.850;6.896;2022-07-05T00:19:42;14.70;99.90
59855;DHT22;45732;52.850;6.896;2022-07-05T00:22:07;14.70;99.90
59855;DHT22;45732;52.850;6.896;2022-07-05T00:24:33;14.50;99.90
59855;DHT22;45732;52.850;6.896;2022-07-05T00:27:00;14.40;99.90
59855;DHT22;45732;52.850;6.896;2022-07-05T00:29:25;14.30;99.90
59855;DHT22;45732;52.850;6.896;2022-07-05T00:31:51;14.30;99.90
59855;DHT22;45732;52.850;6.896;2022-07-05T00:34:17;14.20;99.90
59855;DHT22;45732;52.850;6.896;2022-07-05T00:36:43;14.20;99.90
59855;DHT22;45732;52.850;6.896;2022-07-05T00:39:09;14.10;99.90
59855;DHT22;45732;52.850;6.896;2022-07-05T00:41:36;14.10;99.90
59855;DHT22;45732;52.850;6.896;2022-07-05T00:44:04;14.10;99.90
59855;DHT22;45732;52.850;6.896;2022-07-05T00:46:30;14.10;99.90
59855;DHT22;45732;52.850;6.896;2022-07-05T00:48:57;14.10;99.90
59855;DHT22;45732;52.850;6.896;2022-07-05T00:51:24;14.10;99.90
59855;DHT22;45732;52.850;6.896;2022-07-05T00:53:50;14.00;99.90
59855;DHT22;45732;52.850;6.896;2022-07-05T00:56:18;14.00;99.90
59855;DHT22;45732;52.850;6.896;2022-07-05T00:58:44;14.00;99.90
59855;DHT22;45732;52.850;6.896;2022-07-05T01:01:11;13.90;99.90
59855;DHT22;45732;52.850;6.896;2022-07-05T01:03:37;13.90;99.90
59855;DHT22;45732;52.850;6.896;2022-07-05T01:06:08;14.00;99.90
59855;DHT22;45732;52.850;6.896;2022-07-05T01:08:38;14.00;99.90
59855;DHT22;45732;52.850;6.896;2022-07-05T01:11:04;14.00;99.90
59855;DHT22;45732;52.850;6.896;2022-07-05T01:13:30;13.80;99.90
59855;DHT22;45732;52.850;6.896;2022-07-05T01:15:56;13.80;99.90
59855;DHT22;45732;52.850;6.896;2022-07-05T01:18:23;13.70;99.90
59855;DHT22;45732;52.850;6.896;2022-07-05T01:20:49;13.70;99.90
59855;DHT22;45732;52.850;6.896;2022-07-05T01:23:20;13.70;99.90
59855;DHT22;45732;52.850;6.896;2022-07-05T01:25:49;13.60;99.90
59855;DHT22;45732;52.850;6.896;2022-07-05T01:28:15;13.60;99.90
59855;DHT22;45732;52.850;6.896;2022-07-05T01:30:42;13.60;99.90
59855;DHT22;45732;52.850;6.896;2022-07-05T01:33:08;13.60;99.90
59855;DHT22;45732;52.850;6.896;2022-07-05T01:35:35;13.50;99.90
59855;DHT22;45732;52.850;6.896;2022-07-05T01:38:02;13.50;99.90
59855;DHT22;45732;52.850;6.896;2022-07-05T01:40:28;13.50;99.90
59855;DHT22;45732;52.850;6.896;2022-07-05T01:42:54;13.50;99.90
59855;DHT22;45732;52.850;6.896;2022-07-05T01:45:21;13.50;99.90
59855;DHT22;45732;52.850;6.896;2022-07-05T01:48:07;13.50;99.90
59855;DHT22;45732;52.850;6.896;2022-07-05T01:50:57;13.40;99.90
59855;DHT22;45732;52.850;6.896;2022-07-05T01:53:29;13.40;99.90
59855;DHT22;45732;52.850;6.896;2022-07-05T01:56:02;13.30;99.90
59855;DHT22;45732;52.850;6.896;2022-07-05T01:58:29;13.30;99.90
59855;DHT22;45732;52.850;6.896;2022-07-05T02:00:57;13.30;99.90
59855;DHT22;45732;52.850;6.896;2022-07-05T02:03:23;13.20;99.90
59855;DHT22;45732;52.850;6.896;2022-07-05T02:05:50;13.10;99.90
59855;DHT22;45732;52.850;6.896;2022-07-05T02:08:17;13.00;99.90
59855;DHT22;45732;52.850;6.896;2022-07-05T02:10:43;13.00;99.90
59855;DHT22;45732;52.850;6.896;2022-07-05T02:13:09;12.90;99.90
59855;DHT22;45732;52.850;6.896;2022-07-05T02:15:38;13.00;99.90
59855;DHT22;45732;52.850;6.896;2022-07-05T02:18:05;13.10;99.90
59855;DHT22;45732;52.850;6.896;2022-07-05T02:20:32;13.10;99.90
59855;DHT22;45732;52.850;6.896;2022-07-05T02:22:58;13.00;99.90
59855;DHT22;45732;52.850;6.896;2022-07-05T02:25:24;13.00;99.90
59855;DHT22;45732;52.850;6.896;2022-07-05T02:27:53;13.00;99.90
59855;DHT22;45732;52.850;6.896;2022-07-05T02:30:19;13.00;99.90
59855;DHT22;45732;52.850;6.896;2022-07-05T02:32:45;12.90;99.90
59855;DHT22;45732;52.850;6.896;2022-07-05T02:35:12;13.00;99.90
59855;DHT22;45732;52.850;6.896;2022-07-05T02:37:37;13.00;99.90
59855;DHT22;45732;52.850;6.896;2022-07-05T02:40:09;13.10;99.90
59855;DHT22;45732;52.850;6.896;2022-07-05T02:42:36;13.00;99.90
59855;DHT22;45732;52.850;6.896;2022-07-05T02:45:01;13.00;99.90
59855;DHT22;45732;52.850;6.896;2022-07-05T02:47:30;13.10;99.90
59855;DHT22;45732;52.850;6.896;2022-07-05T02:49:57;13.10;99.90
59855;DHT22;45732;52.850;6.896;2022-07-05T02:52:23;13.20;99.90
59855;DHT22;45732;52.850;6.896;2022-07-05T02:54:49;13.20;99.90
59855;DHT22;45732;52.850;6.896;2022-07-05T02:57:14;13.20;99.90
59855;DHT22;45732;52.850;6.896;2022-07-05T02:59:40;13.20;99.90
59855;DHT22;45732;52.850;6.896;2022-07-05T03:02:06;13.20;99.90
59855;DHT22;45732;52.850;6.896;2022-07-05T03:04:31;13.20;99.90
59855;DHT22;45732;52.850;6.896;2022-07-05T03:06:57;13.20;99.90
59855;DHT22;45732;52.850;6.896;2022-07-05T03:09:23;13.30;99.90
59855;DHT22;45732;52.850;6.896;2022-07-05T03:11:48;13.20;99.90
59855;DHT22;45732;52.850;6.896;2022-07-05T03:14:14;13.20;99.90
59855;DHT22;45732;52.850;6.896;2022-07-05T03:16:39;13.30;99.90
59855;DHT22;45732;52.850;6.896;2022-07-05T03:19:05;13.30;99.90
59855;DHT22;45732;52.850;6.896;2022-07-05T03:21:31;13.30;99.90
59855;DHT22;45732;52.850;6.896;2022-07-05T03:23:56;13.30;99.90
59855;DHT22;45732;52.850;6.896;2022-07-05T03:26:22;13.20;99.90
59855;DHT22;45732;52.850;6.896;2022-07-05T03:28:48;13.20;99.90
59855;DHT22;45732;52.850;6.896;2022-07-05T03:31:14;13.30;99.90
59855;DHT22;45732;52.850;6.896;2022-07-05T03:33:39;13.30;99.90
59855;DHT22;45732;52.850;6.896;2022-07-05T03:36:05;13.30;99.90
59855;DHT22;45732;52.850;6.896;2022-07-05T03:38:31;13.30;99.90
59855;DHT22;45732;52.850;6.896;2022-07-05T03:40:56;13.30;99.90
59855;DHT22;45732;52.850;6.896;2022-07-05T03:43:22;13.30;99.90
59855;DHT22;45732;52.850;6.896;2022-07-05T03:45:48;13.40;99.90
59855;DHT22;45732;52.850;6.896;2022-07-05T03:48:14;13.40;99.90
59855;DHT22;45732;52.850;6.896;2022-07-05T03:50:39;13.40;99.90
59855;DHT22;45732;52.850;6.896;2022-07-05T03:53:05;13.30;99.90
59855;DHT22;45732;52.850;6.896;2022-07-05T03:55:31;13.30;99.90
59855;DHT22;45732;52.850;6.896;2022-07-05T03:57:56;13.30;99.90
59855;DHT22;45732;52.850;6.896;2022-07-05T04:00:22;13.40;99.90
59855;DHT22;45732;52.850;6.896;2022-07-05T04:02:48;13.30;99.90
59855;DHT22;45732;52.850;6.896;2022-07-05T04:05:13;13.30;99.90
59855;DHT22;45732;52.850;6.896;2022-07-05T04:07:49;13.30;99.90
59855;DHT22;45732;52.850;6.896;2022-07-05T04:10:15;13.40;99.90
59855;DHT22;45732;52.850;6.896;2022-07-05T04:12:41;13.30;99.90
59855;DHT22;45732;52.850;6.896;2022-07-05T04:15:07;13.40;99.90
59855;DHT22;45732;52.850;6.896;2022-07-05T04:17:33;13.40;99.90
59855;DHT22;45732;52.850;6.896;2022-07-05T04:19:59;13.40;99.90
59855;DHT22;45732;52.850;6.896;2022-07-05T04:22:24;13.40;99.90
59855;DHT22;45732;52.850;6.896;2022-07-05T04:24:50;13.50;99.90
59855;DHT22;45732;52.850;6.896;2022-07-05T04:27:34;13.50;99.90
59855;DHT22;45732;52.850;6.896;2022-07-05T04:30:00;13.50;99.90
59855;DHT22;45732;52.850;6.896;2022-07-05T04:32:26;13.50;99.90
59855;DHT22;45732;52.850;6.896;2022-07-05T04:34:51;13.50;99.90
59855;DHT22;45732;52.850;6.896;2022-07-05T04:37:17;13.50;99.90
59855;DHT22;45732;52.850;6.896;2022-07-05T04:39:43;13.60;99.90
59855;DHT22;45732;52.850;6.896;2022-07-05T04:42:08;13.60;99.90
59855;DHT22;45732;52.850;6.896;2022-07-05T04:44:34;13.70;99.90
59855;DHT22;45732;52.850;6.896;2022-07-05T04:47:00;13.70;99.90
59855;DHT22;45732;52.850;6.896;2022-07-05T04:49:25;13.70;99.90
59855;DHT22;45732;52.850;6.896;2022-07-05T04:51:51;13.80;99.90
59855;DHT22;45732;52.850;6.896;2022-07-05T04:54:17;13.80;99.90
59855;DHT22;45732;52.850;6.896;2022-07-05T04:56:42;13.80;99.90
59855;DHT22;45732;52.850;6.896;2022-07-05T04:59:08;13.80;99.90
59855;DHT22;45732;52.850;6.896;2022-07-05T05:01:34;13.90;99.90
59855;DHT22;45732;52.850;6.896;2022-07-05T05:03:59;13.90;99.90
59855;DHT22;45732;52.850;6.896;2022-07-05T05:06:26;13.90;99.90
59855;DHT22;45732;52.850;6.896;2022-07-05T05:08:51;14.00;99.90
59855;DHT22;45732;52.850;6.896;2022-07-05T05:11:17;14.00;99.90
59855;DHT22;45732;52.850;6.896;2022-07-05T05:13:43;14.00;99.90
59855;DHT22;45732;52.850;6.896;2022-07-05T05:16:11;14.00;99.90
59855;DHT22;45732;52.850;6.896;2022-07-05T05:18:36;14.10;99.90
59855;DHT22;45732;52.850;6.896;2022-07-05T05:21:02;14.20;99.90
59855;DHT22;45732;52.850;6.896;2022-07-05T05:23:28;14.20;99.90
59855;DHT22;45732;52.850;6.896;2022-07-05T05:25:53;14.30;99.90
59855;DHT22;45732;52.850;6.896;2022-07-05T05:28:19;14.40;99.90
59855;DHT22;45732;52.850;6.896;2022-07-05T05:30:45;14.40;99.90
59855;DHT22;45732;52.850;6.896;2022-07-05T05:33:11;14.50;99.90
59855;DHT22;45732;52.850;6.896;2022-07-05T05:35:37;14.60;99.90
59855;DHT22;45732;52.850;6.896;2022-07-05T05:38:03;14.60;99.90
59855;DHT22;45732;52.850;6.896;2022-07-05T05:40:29;14.70;99.90
59855;DHT22;45732;52.850;6.896;2022-07-05T05:42:55;14.70;99.90
59855;DHT22;45732;52.850;6.896;2022-07-05T05:45:22;14.70;99.90
59855;DHT22;45732;52.850;6.896;2022-07-05T05:47:54;14.80;99.90
59855;DHT22;45732;52.850;6.896;2022-07-05T05:50:22;14.90;99.90
59855;DHT22;45732;52.850;6.896;2022-07-05T05:52:49;15.00;99.90
59855;DHT22;45732;52.850;6.896;2022-07-05T05:55:15;15.10;99.90
59855;DHT22;45732;52.850;6.896;2022-07-05T05:57:42;15.20;99.90
59855;DHT22;45732;52.850;6.896;2022-07-05T06:00:08;15.20;99.90
59855;DHT22;45732;52.850;6.896;2022-07-05T06:02:34;15.20;99.90
59855;DHT22;45732;52.850;6.896;2022-07-05T06:05:00;15.30;99.90
59855;DHT22;45732;52.850;6.896;2022-07-05T06:07:26;15.40;99.90
59855;DHT22;45732;52.850;6.896;2022-07-05T06:09:52;15.50;99.90
59855;DHT22;45732;52.850;6.896;2022-07-05T06:12:18;15.50;99.90
59855;DHT22;45732;52.850;6.896;2022-07-05T06:14:43;15.60;99.90
59855;DHT22;45732;52.850;6.896;2022-07-05T06:17:09;15.70;99.90
59855;DHT22;45732;52.850;6.896;2022-07-05T06:19:35;15.70;99.90
59855;DHT22;45732;52.850;6.896;2022-07-05T06:22:00;15.80;99.90
59855;DHT22;45732;52.850;6.896;2022-07-05T06:24:26;15.90;99.90
59855;DHT22;45732;52.850;6.896;2022-07-05T06:26:52;15.90;99.90
59855;DHT22;45732;52.850;6.896;2022-07-05T06:29:17;16.00;99.90
59855;DHT22;45732;52.850;6.896;2022-07-05T06:31:43;16.10;99.90
59855;DHT22;45732;52.850;6.896;2022-07-05T06:34:09;16.10;99.90
59855;DHT22;45732;52.850;6.896;2022-07-05T06:36:34;16.20;99.90
59855;DHT22;45732;52.850;6.896;2022-07-05T06:39:00;16.20;99.90
59855;DHT22;45732;52.850;6.896;2022-07-05T06:41:26;16.30;99.90
59855;DHT22;45732;52.850;6.896;2022-07-05T06:43:52;16.40;99.90
59855;DHT22;45732;52.850;6.896;2022-07-05T06:46:17;16.40;99.90
59855;DHT22;45732;52.850;6.896;2022-07-05T06:48:43;16.40;99.90
59855;DHT22;45732;52.850;6.896;2022-07-05T06:51:09;16.50;99.90
59855;DHT22;45732;52.850;6.896;2022-07-05T06:53:35;16.50;99.90
59855;DHT22;45732;52.850;6.896;2022-07-05T06:56:01;16.60;99.90
59855;DHT22;45732;52.850;6.896;2022-07-05T06:58:27;16.70;99.90
59855;DHT22;45732;52.850;6.896;2022-07-05T07:00:52;16.70;99.90
59855;DHT22;45732;52.850;6.896;2022-07-05T07:03:18;16.80;99.90
59855;DHT22;45732;52.850;6.896;2022-07-05T07:05:44;16.90;99.90
59855;DHT22;45732;52.850;6.896;2022-07-05T07:08:10;16.90;99.90
59855;DHT22;45732;52.850;6.896;2022-07-05T07:10:54;16.90;99.90
59855;DHT22;45732;52.850;6.896;2022-07-05T07:13:20;17.00;99.90
59855;DHT22;45732;52.850;6.896;2022-07-05T07:15:45;17.10;99.90
59855;DHT22;45732;52.850;6.896;2022-07-05T07:18:14;17.20;99.90
59855;DHT22;45732;52.850;6.896;2022-07-05T07:20:41;17.20;99.90
59855;DHT22;45732;52.850;6.896;2022-07-05T07:23:07;17.30;99.90
59855;DHT22;45732;52.850;6.896;2022-07-05T07:25:32;17.30;99.90
59855;DHT22;45732;52.850;6.896;2022-07-05T07:27:58;17.40;99.90
59855;DHT22;45732;52.850;6.896;2022-07-05T07:30:25;17.40;99.90
59855;DHT22;45732;52.850;6.896;2022-07-05T07:32:52;17.50;99.90
59855;DHT22;45732;52.850;6.896;2022-07-05T07:35:18;17.50;99.90
59855;DHT22;45732;52.850;6.896;2022-07-05T07:37:44;17.60;99.90
59855;DHT22;45732;52.850;6.896;2022-07-05T07:40:10;17.70;99.90
59855;DHT22;45732;52.850;6.896;2022-07-05T07:42:36;17.70;99.90
59855;DHT22;45732;52.850;6.896;2022-07-05T07:45:02;17.70;99.90
59855;DHT22;45732;52.850;6.896;2022-07-05T07:47:32;17.70;99.90
59855;DHT22;45732;52.850;6.896;2022-07-05T07:49:58;17.70;99.90
59855;DHT22;45732;52.850;6.896;2022-07-05T07:52:24;17.70;99.90
59855;DHT22;45732;52.850;6.896;2022-07-05T07:54:50;17.60;99.90
59855;DHT22;45732;52.850;6.896;2022-07-05T07:57:16;17.60;99.90
59855;DHT22;45732;52.850;6.896;2022-07-05T07:59:41;17.70;99.90
59855;DHT22;45732;52.850;6.896;2022-07-05T08:02:07;17.70;99.90
59855;DHT22;45732;52.850;6.896;2022-07-05T08:04:33;17.80;99.90
59855;DHT22;45732;52.850;6.896;2022-07-05T08:06:59;17.90;99.90
59855;DHT22;45732;52.850;6.896;2022-07-05T08:09:24;18.00;99.90
59855;DHT22;45732;52.850;6.896;2022-07-05T08:11:50;18.10;99.90
59855;DHT22;45732;52.850;6.896;2022-07-05T08:14:17;18.20;99.90
59855;DHT22;45732;52.850;6.896;2022-07-05T08:16:43;18.20;99.90
59855;DHT22;45732;52.850;6.896;2022-07-05T08:19:10;18.40;99.90
59855;DHT22;45732;52.850;6.896;2022-07-05T08:21:54;18.40;99.90
59855;DHT22;45732;52.850;6.896;2022-07-05T08:24:20;18.30;99.90
59855;DHT22;45732;52.850;6.896;2022-07-05T08:26:45;18.20;99.90
59855;DHT22;45732;52.850;6.896;2022-07-05T08:29:12;18.20;99.90
59855;DHT22;45732;52.850;6.896;2022-07-05T08:31:47;18.10;99.90
59855;DHT22;45732;52.850;6.896;2022-07-05T08:34:13;18.20;99.90
59855;DHT22;45732;52.850;6.896;2022-07-05T08:36:40;18.20;99.90
59855;DHT22;45732;52.850;6.896;2022-07-05T08:39:09;18.30;99.90
59855;DHT22;45732;52.850;6.896;2022-07-05T08:41:41;18.30;99.90
59855;DHT22;45732;52.850;6.896;2022-07-05T08:44:08;18.30;99.90
59855;DHT22;45732;52.850;6.896;2022-07-05T08:46:38;18.40;99.90
59855;DHT22;45732;52.850;6.896;2022-07-05T08:49:04;18.60;99.90
59855;DHT22;45732;52.850;6.896;2022-07-05T08:51:33;18.60;99.90
59855;DHT22;45732;52.850;6.896;2022-07-05T08:54:00;18.60;99.90
59855;DHT22;45732;52.850;6.896;2022-07-05T08:56:25;18.40;99.90
59855;DHT22;45732;52.850;6.896;2022-07-05T08:58:51;18.40;99.90
59855;DHT22;45732;52.850;6.896;2022-07-05T09:01:17;18.30;99.90
59855;DHT22;45732;52.850;6.896;2022-07-05T09:03:46;18.20;99.90
59855;DHT22;45732;52.850;6.896;2022-07-05T09:06:15;18.20;99.90
59855;DHT22;45732;52.850;6.896;2022-07-05T09:08:41;18.10;99.90
59855;DHT22;45732;52.850;6.896;2022-07-05T09:11:09;18.30;99.90
59855;DHT22;45732;52.850;6.896;2022-07-05T09:13:43;18.30;99.90
59855;DHT22;45732;52.850;6.896;2022-07-05T09:16:09;18.40;99.90
59855;DHT22;45732;52.850;6.896;2022-07-05T09:18:43;18.40;99.90
59855;DHT22;45732;52.850;6.896;2022-07-05T09:21:20;18.60;99.90
59855;DHT22;45732;52.850;6.896;2022-07-05T09:24:12;18.80;99.90
59855;DHT22;45732;52.850;6.896;2022-07-05T09:29:12;18.80;99.90
59855;DHT22;45732;52.850;6.896;2022-07-05T09:31:41;18.80;99.90
59855;DHT22;45732;52.850;6.896;2022-07-05T09:34:11;18.70;99.90
59855;DHT22;45732;52.850;6.896;2022-07-05T09:37:03;18.70;99.90
59855;DHT22;45732;52.850;6.896;2022-07-05T09:44:55;18.70;99.90
59855;DHT22;45732;52.850;6.896;2022-07-05T09:47:28;18.60;99.90
59855;DHT22;45732;52.850;6.896;2022-07-05T09:49:55;18.60;99.90
59855;DHT22;45732;52.850;6.896;2022-07-05T09:52:34;18.70;99.90
59855;DHT22;45732;52.850;6.896;2022-07-05T09:55:05;18.80;99.90
59855;DHT22;45732;52.850;6.896;2022-07-05T09:57:32;18.80;99.90
59855;DHT22;45732;52.850;6.896;2022-07-05T10:00:04;18.80;99.90
59855;DHT22;45732;52.850;6.896;2022-07-05T10:02:44;18.80;99.90
59855;DHT22;45732;52.850;6.896;2022-07-05T10:05:17;18.80;99.90
59855;DHT22;45732;52.850;6.896;2022-07-05T10:07:47;18.90;99.90
59855;DHT22;45732;52.850;6.896;2022-07-05T10:10:18;19.20;99.90
59855;DHT22;45732;52.850;6.896;2022-07-05T10:12:46;19.40;99.90
59855;DHT22;45732;52.850;6.896;2022-07-05T10:15:24;19.40;99.90
59855;DHT22;45732;52.850;6.896;2022-07-05T10:18:00;19.40;99.90
59855;DHT22;45732;52.850;6.896;2022-07-05T10:23:14;19.30;99.90
59855;DHT22;45732;52.850;6.896;2022-07-05T10:25:41;19.20;99.90
59855;DHT22;45732;52.850;6.896;2022-07-05T10:28:09;19.10;99.90
59855;DHT22;45732;52.850;6.896;2022-07-05T10:30:35;19.10;99.90
59855;DHT22;45732;52.850;6.896;2022-07-05T10:33:02;19.00;99.90
59855;DHT22;45732;52.850;6.896;2022-07-05T10:35:29;18.90;99.90
59855;DHT22;45732;52.850;6.896;2022-07-05T10:37:56;18.90;99.90
59855;DHT22;45732;52.850;6.896;2022-07-05T10:40:22;18.90;99.90
59855;DHT22;45732;52.850;6.896;2022-07-05T10:42:52;18.90;99.90
59855;DHT22;45732;52.850;6.896;2022-07-05T10:48:21;19.00;99.90
59855;DHT22;45732;52.850;6.896;2022-07-05T10:51:00;19.30;99.90
59855;DHT22;45732;52.850;6.896;2022-07-05T10:58:33;19.40;99.90
59855;DHT22;45732;52.850;6.896;2022-07-05T11:06:28;19.40;99.90
59855;DHT22;45732;52.850;6.896;2022-07-05T11:11:32;19.30;99.90
59855;DHT22;45732;52.850;6.896;2022-07-05T11:14:00;19.30;99.90
59855;DHT22;45732;52.850;6.896;2022-07-05T11:16:30;19.30;99.90
59855;DHT22;45732;52.850;6.896;2022-07-05T11:19:11;19.30;99.90
59855;DHT22;45732;52.850;6.896;2022-07-05T11:22:00;19.20;99.90
59855;DHT22;45732;52.850;6.896;2022-07-05T11:24:27;19.30;99.90
59855;DHT22;45732;52.850;6.896;2022-07-05T11:26:57;19.40;99.90
59855;DHT22;45732;52.850;6.896;2022-07-05T11:29:43;19.30;99.90
59855;DHT22;45732;52.850;6.896;2022-07-05T11:32:11;19.30;99.90
59855;DHT22;45732;52.850;6.896;2022-07-05T11:34:39;19.30;99.90
59855;DHT22;45732;52.850;6.896;2022-07-05T11:37:24;19.30;99.90
59855;DHT22;45732;52.850;6.896;2022-07-05T11:42:31;19.50;99.90
59855;DHT22;45732;52.850;6.896;2022-07-05T11:44:57;19.70;99.90
59855;DHT22;45732;52.850;6.896;2022-07-05T11:47:23;20.00;99.90
59855;DHT22;45732;52.850;6.896;2022-07-05T11:49:58;20.00;99.90
59855;DHT22;45732;52.850;6.896;2022-07-05T11:52:25;20.10;99.90
59855;DHT22;45732;52.850;6.896;2022-07-05T11:54:51;20.20;99.90
59855;DHT22;45732;52.850;6.896;2022-07-05T11:57:18;20.20;99.90
59855;DHT22;45732;52.850;6.896;2022-07-05T11:59:45;20.30;99.90
59855;DHT22;45732;52.850;6.896;2022-07-05T12:02:11;20.20;99.90
59855;DHT22;45732;52.850;6.896;2022-07-05T12:04:36;20.10;99.90
59855;DHT22;45732;52.850;6.896;2022-07-05T12:07:03;19.90;99.90
59855;DHT22;45732;52.850;6.896;2022-07-05T12:09:33;19.90;99.90
59855;DHT22;45732;52.850;6.896;2022-07-05T12:12:21;19.90;99.90
59855;DHT22;45732;52.850;6.896;2022-07-05T12:15:07;20.00;99.90
59855;DHT22;45732;52.850;6.896;2022-07-05T12:17:37;20.00;99.90
59855;DHT22;45732;52.850;6.896;2022-07-05T12:20:04;20.10;99.90
59855;DHT22;45732;52.850;6.896;2022-07-05T12:22:31;20.10;99.90
59855;DHT22;45732;52.850;6.896;2022-07-05T12:24:58;20.00;99.90
59855;DHT22;45732;52.850;6.896;2022-07-05T12:27:27;20.10;99.90
59855;DHT22;45732;52.850;6.896;2022-07-05T12:29:54;20.20;99.90
59855;DHT22;45732;52.850;6.896;2022-07-05T12:32:21;20.30;99.90
59855;DHT22;45732;52.850;6.896;2022-07-05T12:34:46;20.30;99.90
59855;DHT22;45732;52.850;6.896;2022-07-05T12:37:22;20.20;99.90
59855;DHT22;45732;52.850;6.896;2022-07-05T12:39:49;20.00;99.90
59855;DHT22;45732;52.850;6.896;2022-07-05T12:45:14;20.10;99.90
59855;DHT22;45732;52.850;6.896;2022-07-05T12:47:49;20.00;99.90
59855;DHT22;45732;52.850;6.896;2022-07-05T12:50:26;20.00;99.90
59855;DHT22;45732;52.850;6.896;2022-07-05T12:52:58;20.00;99.20
59855;DHT22;45732;52.850;6.896;2022-07-05T12:55:43;20.00;98.80
59855;DHT22;45732;52.850;6.896;2022-07-05T12:58:28;19.90;98.10
59855;DHT22;45732;52.850;6.896;2022-07-05T13:00:53;20.00;98.70
59855;DHT22;45732;52.850;6.896;2022-07-05T13:03:19;20.10;97.80
59855;DHT22;45732;52.850;6.896;2022-07-05T13:05:59;20.30;98.50
59855;DHT22;45732;52.850;6.896;2022-07-05T13:08:31;20.20;95.50
59855;DHT22;45732;52.850;6.896;2022-07-05T13:10:57;20.20;97.00
59855;DHT22;45732;52.850;6.896;2022-07-05T13:13:23;20.20;96.80
59855;DHT22;45732;52.850;6.896;2022-07-05T13:15:48;20.40;96.40
59855;DHT22;45732;52.850;6.896;2022-07-05T13:18:24;20.50;95.80
59855;DHT22;45732;52.850;6.896;2022-07-05T13:20:49;20.50;94.80
59855;DHT22;45732;52.850;6.896;2022-07-05T13:23:15;20.50;95.90
59855;DHT22;45732;52.850;6.896;2022-07-05T13:25:41;20.40;96.60
59855;DHT22;45732;52.850;6.896;2022-07-05T13:28:06;20.30;97.60
59855;DHT22;45732;52.850;6.896;2022-07-05T13:30:32;20.10;98.50
59855;DHT22;45732;52.850;6.896;2022-07-05T13:32:58;20.10;99.20
59855;DHT22;45732;52.850;6.896;2022-07-05T13:35:23;20.00;99.70
59855;DHT22;45732;52.850;6.896;2022-07-05T13:37:49;20.10;99.90
59855;DHT22;45732;52.850;6.896;2022-07-05T13:40:15;20.10;99.90
59855;DHT22;45732;52.850;6.896;2022-07-05T13:42:40;20.20;99.90
59855;DHT22;45732;52.850;6.896;2022-07-05T13:45:06;20.30;99.90
59855;DHT22;45732;52.850;6.896;2022-07-05T13:47:32;20.50;99.90
59855;DHT22;45732;52.850;6.896;2022-07-05T13:49:58;20.40;99.70
59855;DHT22;45732;52.850;6.896;2022-07-05T13:52:42;20.40;99.80
59855;DHT22;45732;52.850;6.896;2022-07-05T13:55:08;20.50;99.90
59855;DHT22;45732;52.850;6.896;2022-07-05T13:57:34;20.60;99.80
59855;DHT22;45732;52.850;6.896;2022-07-05T13:59:59;20.70;98.80
59855;DHT22;45732;52.850;6.896;2022-07-05T14:02:25;20.70;98.60
59855;DHT22;45732;52.850;6.896;2022-07-05T14:04:51;20.70;98.30
59855;DHT22;45732;52.850;6.896;2022-07-05T14:07:17;20.70;98.60
59855;DHT22;45732;52.850;6.896;2022-07-05T14:09:42;20.60;98.10
59855;DHT22;45732;52.850;6.896;2022-07-05T14:12:09;20.60;98.10
59855;DHT22;45732;52.850;6.896;2022-07-05T14:14:35;20.70;98.50
59855;DHT22;45732;52.850;6.896;2022-07-05T14:17:00;20.80;98.70
59855;DHT22;45732;52.850;6.896;2022-07-05T14:19:26;20.80;98.30
59855;DHT22;45732;52.850;6.896;2022-07-05T14:21:53;20.60;98.00
59855;DHT22;45732;52.850;6.896;2022-07-05T14:24:19;20.60;97.50
59855;DHT22;45732;52.850;6.896;2022-07-05T14:26:44;20.60;97.70
59855;DHT22;45732;52.850;6.896;2022-07-05T14:29:10;20.60;97.30
59855;DHT22;45732;52.850;6.896;2022-07-05T14:31:36;20.60;97.60
59855;DHT22;45732;52.850;6.896;2022-07-05T14:34:02;20.50;97.40
59855;DHT22;45732;52.850;6.896;2022-07-05T14:36:27;20.40;97.50
59855;DHT22;45732;52.850;6.896;2022-07-05T14:38:53;20.40;97.50
59855;DHT22;45732;52.850;6.896;2022-07-05T14:41:19;20.40;96.80
59855;DHT22;45732;52.850;6.896;2022-07-05T14:43:45;20.50;97.40
59855;DHT22;45732;52.850;6.896;2022-07-05T14:46:11;20.60;97.90
59855;DHT22;45732;52.850;6.896;2022-07-05T14:48:43;20.40;97.00
59855;DHT22;45732;52.850;6.896;2022-07-05T14:51:09;20.40;97.50
59855;DHT22;45732;52.850;6.896;2022-07-05T14:53:34;20.50;97.90
59855;DHT22;45732;52.850;6.896;2022-07-05T14:56:00;20.40;97.30
59855;DHT22;45732;52.850;6.896;2022-07-05T14:58:25;20.40;97.60
59855;DHT22;45732;52.850;6.896;2022-07-05T15:00:56;20.40;97.80
59855;DHT22;45732;52.850;6.896;2022-07-05T15:03:21;20.30;97.50
59855;DHT22;45732;52.850;6.896;2022-07-05T15:05:49;20.20;97.10
59855;DHT22;45732;52.850;6.896;2022-07-05T15:08:15;20.00;97.20
59855;DHT22;45732;52.850;6.896;2022-07-05T15:10:40;20.00;97.50
59855;DHT22;45732;52.850;6.896;2022-07-05T15:13:06;20.00;98.30
59855;DHT22;45732;52.850;6.896;2022-07-05T15:15:34;20.10;98.40
59855;DHT22;45732;52.850;6.896;2022-07-05T15:17:59;20.20;97.90
59855;DHT22;45732;52.850;6.896;2022-07-05T15:20:25;20.30;97.70
59855;DHT22;45732;52.850;6.896;2022-07-05T15:22:51;20.50;97.30
59855;DHT22;45732;52.850;6.896;2022-07-05T15:25:17;20.50;96.50
59855;DHT22;45732;52.850;6.896;2022-07-05T15:27:42;20.60;97.00
59855;DHT22;45732;52.850;6.896;2022-07-05T15:30:08;20.60;97.60
59855;DHT22;45732;52.850;6.896;2022-07-05T15:32:41;20.60;98.10
59855;DHT22;45732;52.850;6.896;2022-07-05T15:35:07;20.40;97.80
59855;DHT22;45732;52.850;6.896;2022-07-05T15:37:32;20.30;97.70
59855;DHT22;45732;52.850;6.896;2022-07-05T15:39:58;20.20;97.60
59855;DHT22;45732;52.850;6.896;2022-07-05T15:42:25;20.30;97.90
59855;DHT22;45732;52.850;6.896;2022-07-05T15:44:51;20.40;98.00
59855;DHT22;45732;52.850;6.896;2022-07-05T15:47:16;20.40;97.80
59855;DHT22;45732;52.850;6.896;2022-07-05T15:49:42;20.40;97.70
59855;DHT22;45732;52.850;6.896;2022-07-05T15:52:08;20.30;97.50
59855;DHT22;45732;52.850;6.896;2022-07-05T15:54:34;20.30;97.30
59855;DHT22;45732;52.850;6.896;2022-07-05T15:57:00;20.40;96.90
59855;DHT22;45732;52.850;6.896;2022-07-05T15:59:27;20.40;97.00
59855;DHT22;45732;52.850;6.896;2022-07-05T16:01:52;20.30;96.30
59855;DHT22;45732;52.850;6.896;2022-07-05T16:04:19;20.20;96.50